createdAt,value
2023-09-02T00:02:11.360Z,101494.41
2023-09-02T00:04:41.006Z,101507.72
2023-09-02T00:07:07.435Z,101502.06
2023-09-02T00:09:33.885Z,101516.84
2023-09-02T00:12:00.361Z,101519.66
2023-09-02T00:14:26.861Z,101523.31
2023-09-02T00:16:53.301Z,101515.97
2023-09-02T00:19:19.747Z,101515.13
2023-09-02T00:21:46.190Z,101516.66
2023-09-02T00:24:12.691Z,101521.31
2023-09-02T00:26:39.272Z,101522.13
2023-09-02T00:29:05.840Z,101521.31
2023-09-02T00:31:32.401Z,101524.13
2023-09-02T00:33:58.911Z,101518.78
2023-09-02T00:36:25.468Z,101524.81
2023-09-02T00:38:51.911Z,101512.25
2023-09-02T00:41:40.647Z,101514.72
2023-09-02T00:44:07.363Z,101513.81
2023-09-02T00:46:33.996Z,101524.38
2023-09-02T00:49:01.286Z,101480.31
2023-09-02T00:51:28.720Z,101507.44
2023-09-02T00:53:55.556Z,101522.75
2023-09-02T00:56:23.375Z,101506.50
2023-09-02T00:58:49.886Z,101521.56
2023-09-02T01:01:16.689Z,101481.44
2023-09-02T01:03:43.881Z,101531.81
2023-09-02T01:06:10.558Z,101516.91
2023-09-02T01:08:38.613Z,101524.75
2023-09-02T01:11:05.152Z,101524.47
2023-09-02T01:13:31.796Z,101496.13
2023-09-02T01:15:58.843Z,101527.97
2023-09-02T01:18:26.421Z,101528.38
2023-09-02T01:21:01.471Z,101525.81
2023-09-02T01:24:07.331Z,101538.22
2023-09-02T01:26:55.598Z,101539.72
2023-09-02T01:29:24.678Z,101542.78
2023-09-02T01:31:53.443Z,101519.69
2023-09-02T01:34:22.651Z,101537.38
2023-09-02T01:36:53.003Z,101547.22
2023-09-02T01:39:23.172Z,101564.22
2023-09-02T01:41:52.200Z,101516.09
2023-09-02T01:44:20.096Z,101551.94
2023-09-02T01:46:50.310Z,101551.81
2023-09-02T01:49:17.494Z,101537.41
2023-09-02T01:51:45.641Z,101551.59
2023-09-02T01:54:12.948Z,101546.75
2023-09-02T01:56:39.619Z,101566.41
2023-09-02T01:59:06.145Z,101552.72
2023-09-02T02:01:35.387Z,101563.13
2023-09-02T02:04:05.444Z,101569.47
2023-09-02T02:06:33.141Z,101558.22
2023-09-02T02:09:05.353Z,101561.84
2023-09-02T02:11:37.522Z,101566.22
2023-09-02T02:14:04.779Z,101566.34
2023-09-02T02:16:32.265Z,101551.06
2023-09-02T02:19:02.025Z,101563.19
2023-09-02T02:21:29.852Z,101575.56
2023-09-02T02:23:58.195Z,101564.53
2023-09-02T02:26:24.799Z,101579.47
2023-09-02T02:28:51.231Z,101566.75
2023-09-02T02:31:17.778Z,101579.03
2023-09-02T02:33:44.237Z,101579.03
2023-09-02T02:36:11.049Z,101570.03
2023-09-02T02:38:37.828Z,101577.69
2023-09-02T02:41:04.306Z,101550.66
2023-09-02T02:43:31.201Z,101576.25
2023-09-02T02:45:57.826Z,101584.25
2023-09-02T02:48:28.163Z,101574.53
2023-09-02T02:50:54.563Z,101580.97
2023-09-02T02:53:21.048Z,101586.31
2023-09-02T02:55:47.499Z,101592.91
2023-09-02T02:58:16.834Z,101564.19
2023-09-02T03:00:44.635Z,101580.06
2023-09-02T03:03:11.976Z,101580.53
2023-09-02T03:05:42.177Z,101539.09
2023-09-02T03:08:09.860Z,101588.03
2023-09-02T03:10:37.011Z,101571.44
2023-09-02T03:13:04.404Z,101595.22
2023-09-02T03:15:31.141Z,101568.06
2023-09-02T03:17:57.826Z,101580.53
2023-09-02T03:20:24.434Z,101553.41
2023-09-02T03:22:50.898Z,101587.69
2023-09-02T03:25:17.443Z,101589.25
2023-09-02T03:27:44.154Z,101580.69
2023-09-02T03:30:10.939Z,101593.75
2023-09-02T03:32:37.637Z,101588.53
2023-09-02T03:35:05.596Z,101593.75
2023-09-02T03:37:32.207Z,101595.69
2023-09-02T03:39:58.967Z,101590.22
2023-09-02T03:42:25.514Z,101585.88
2023-09-02T03:44:52.270Z,101594.47
2023-09-02T03:47:18.751Z,101597.03
2023-09-02T03:49:45.243Z,101588.53
2023-09-02T03:52:11.682Z,101599.69
2023-09-02T03:54:39.854Z,101571.44
2023-09-02T03:57:06.641Z,101585.88
2023-09-02T03:59:33.200Z,101586.59
2023-09-02T04:01:59.736Z,101588.41
2023-09-02T04:04:27.209Z,101562.00
2023-09-02T04:06:53.684Z,101603.47
2023-09-02T04:09:20.108Z,101592.44
2023-09-02T04:11:46.558Z,101572.81
2023-09-02T04:14:13.005Z,101603.69
2023-09-02T04:16:39.715Z,101597.06
2023-09-02T04:19:06.293Z,101593.53
2023-09-02T04:21:33.206Z,101588.78
2023-09-02T04:23:59.800Z,101618.03
2023-09-02T04:26:26.816Z,101604.34
2023-09-02T04:28:56.810Z,101625.19
2023-09-02T04:31:23.664Z,101618.16
2023-09-02T04:33:50.140Z,101601.44
2023-09-02T04:36:16.599Z,101597.19
2023-09-02T04:38:43.127Z,101626.63
2023-09-02T04:41:09.612Z,101647.25
2023-09-02T04:43:36.315Z,101633.66
2023-09-02T04:46:04.416Z,101634.41
2023-09-02T04:48:31.224Z,101647.75
2023-09-02T04:50:58.036Z,101607.03
2023-09-02T04:53:24.559Z,101610.16
2023-09-02T04:55:51.635Z,101660.75
2023-09-02T04:58:18.997Z,101624.94
2023-09-02T05:00:45.524Z,101651.75
2023-09-02T05:03:11.979Z,101645.81
2023-09-02T05:05:38.630Z,101652.47
2023-09-02T05:08:05.315Z,101665.09
2023-09-02T05:10:31.835Z,101663.47
2023-09-02T05:12:58.450Z,101665.19
2023-09-02T05:15:24.876Z,101669.31
2023-09-02T05:17:52.124Z,101671.59
2023-09-02T05:20:18.718Z,101650.13
2023-09-02T05:22:45.250Z,101679.97
2023-09-02T05:25:12.037Z,101677.03
2023-09-02T05:27:40.053Z,101680.31
2023-09-02T05:30:07.442Z,101667.81
2023-09-02T05:32:34.042Z,101679.31
2023-09-02T05:35:00.493Z,101678.94
2023-09-02T05:37:26.957Z,101682.91
2023-09-02T05:39:53.452Z,101685.94
2023-09-02T05:42:19.921Z,101668.78
2023-09-02T05:44:46.439Z,101643.34
2023-09-02T05:47:14.210Z,101682.25
2023-09-02T05:49:41.113Z,101632.22
2023-09-02T05:52:07.794Z,101672.38
2023-09-02T05:54:34.437Z,101654.72
2023-09-02T05:57:01.379Z,101686.44
2023-09-02T05:59:27.887Z,101665.50
2023-09-02T06:01:56.849Z,101664.28
2023-09-02T06:04:23.442Z,101672.97
2023-09-02T06:06:49.909Z,101697.03
2023-09-02T06:09:17.199Z,101688.63
2023-09-02T06:11:44.057Z,101696.00
2023-09-02T06:14:10.524Z,101698.94
2023-09-02T06:16:37.018Z,101651.81
2023-09-02T06:19:03.504Z,101688.06
2023-09-02T06:21:29.949Z,101669.03
2023-09-02T06:23:56.380Z,101707.69
2023-09-02T06:26:24.370Z,101699.63
2023-09-02T06:28:50.869Z,101716.25
2023-09-02T06:31:17.433Z,101715.78
2023-09-02T06:33:44.270Z,101681.16
2023-09-02T06:36:13.018Z,101698.16
2023-09-02T06:38:39.685Z,101722.41
2023-09-02T06:41:11.643Z,101715.19
2023-09-02T06:43:39.791Z,101716.38
2023-09-02T06:46:17.762Z,101714.06
2023-09-02T06:48:47.749Z,101731.81
2023-09-02T06:51:15.019Z,101737.78
2023-09-02T06:53:42.360Z,101699.53
2023-09-02T06:56:10.344Z,101726.56
2023-09-02T06:58:40.278Z,101738.44
2023-09-02T07:01:07.361Z,101721.28
2023-09-02T07:03:34.165Z,101696.22
2023-09-02T07:06:17.754Z,101752.13
2023-09-02T07:08:45.048Z,101718.34
2023-09-02T07:11:12.805Z,101753.47
2023-09-02T07:13:39.719Z,101757.34
2023-09-02T07:16:07.623Z,101772.38
2023-09-02T07:18:34.848Z,101767.47
2023-09-02T07:21:03.054Z,101772.84
2023-09-02T07:23:30.320Z,101765.91
2023-09-02T07:25:58.495Z,101781.91
2023-09-02T07:28:24.972Z,101774.94
2023-09-02T07:30:51.460Z,101779.16
2023-09-02T07:33:18.430Z,101775.97
2023-09-02T07:35:45.175Z,101794.53
2023-09-02T07:38:11.643Z,101793.16
2023-09-02T07:40:38.181Z,101790.66
2023-09-02T07:43:04.644Z,101737.28
2023-09-02T07:45:31.147Z,101786.19
2023-09-02T07:47:57.848Z,101790.88
2023-09-02T07:50:24.446Z,101784.75
2023-09-02T07:52:50.939Z,101791.09
2023-09-02T07:55:20.231Z,101807.97
2023-09-02T07:57:46.686Z,101796.75
2023-09-02T08:00:13.241Z,101795.25
2023-09-02T08:02:39.808Z,101815.25
2023-09-02T08:05:07.620Z,101818.44
2023-09-02T08:07:34.071Z,101821.25
2023-09-02T08:10:00.585Z,101819.03
2023-09-02T08:12:27.078Z,101786.16
2023-09-02T08:14:53.560Z,101772.69
2023-09-02T08:17:20.911Z,101828.25
2023-09-02T08:19:48.158Z,101834.50
2023-09-02T08:22:14.910Z,101841.69
2023-09-02T08:24:43.303Z,101813.06
2023-09-02T08:27:10.148Z,101835.22
2023-09-02T08:29:37.818Z,101812.38
2023-09-02T08:32:04.482Z,101831.41
2023-09-02T08:34:30.986Z,101830.75
2023-09-02T08:36:57.464Z,101829.28
2023-09-02T08:39:23.955Z,101835.78
2023-09-02T08:41:51.064Z,101837.81
2023-09-02T08:44:20.645Z,101839.75
2023-09-02T08:46:50.027Z,101837.88
2023-09-02T08:49:17.540Z,101819.66
2023-09-02T08:51:46.047Z,101847.81
2023-09-02T08:54:13.555Z,101856.63
2023-09-02T08:56:44.020Z,101846.47
2023-09-02T08:59:11.399Z,101848.97
2023-09-02T09:01:47.503Z,101807.31
2023-09-02T09:04:15.651Z,101815.22
2023-09-02T09:06:43.306Z,101831.44
2023-09-02T09:09:10.925Z,101848.63
2023-09-02T09:11:41.076Z,101824.16
2023-09-02T09:14:11.069Z,101838.78
2023-09-02T09:16:38.277Z,101839.28
2023-09-02T09:19:04.944Z,101834.25
2023-09-02T09:21:31.625Z,101825.06
2023-09-02T09:23:58.109Z,101779.34
2023-09-02T09:26:25.981Z,101846.31
2023-09-02T09:28:58.086Z,101852.72
2023-09-02T09:31:26.511Z,101849.41
2023-09-02T09:33:54.945Z,101856.94
2023-09-02T09:36:25.363Z,101856.00
2023-09-02T09:39:00.023Z,101852.06
2023-09-02T09:41:27.944Z,101850.53
2023-09-02T09:44:14.855Z,101850.63
2023-09-02T09:46:44.120Z,101862.22
2023-09-02T09:49:22.088Z,101865.34
2023-09-02T09:51:48.612Z,101861.53
2023-09-02T09:54:15.074Z,101860.63
2023-09-02T09:56:45.712Z,101864.69
2023-09-02T09:59:12.538Z,101864.47
2023-09-02T10:01:39.201Z,101863.44
2023-09-02T10:04:09.368Z,101871.63
2023-09-02T10:06:39.621Z,101876.19
2023-09-02T10:09:06.117Z,101870.28
2023-09-02T10:11:32.577Z,101887.84
2023-09-02T10:14:01.486Z,101884.84
2023-09-02T10:16:29.883Z,101864.91
2023-09-02T10:18:56.448Z,101887.91
2023-09-02T10:21:27.300Z,101887.19
2023-09-02T10:23:56.661Z,101836.50
2023-09-02T10:26:28.624Z,101887.06
2023-09-02T10:29:00.655Z,101869.94
2023-09-02T10:31:33.603Z,101810.69
2023-09-02T10:34:22.310Z,101873.94
2023-09-02T10:36:58.056Z,101880.16
2023-09-02T10:39:44.982Z,101877.91
2023-09-02T10:42:14.356Z,101896.19
2023-09-02T10:44:40.944Z,101843.03
2023-09-02T10:47:08.751Z,101885.19
2023-09-02T10:49:36.667Z,101894.38
2023-09-02T10:52:03.828Z,101897.03
2023-09-02T10:55:09.388Z,101896.97
2023-09-02T10:57:45.374Z,101891.81
2023-09-02T11:00:22.720Z,101902.56
2023-09-02T11:02:54.754Z,101890.41
2023-09-02T11:05:22.515Z,101885.00
2023-09-02T11:07:50.250Z,101892.66
2023-09-02T11:10:18.609Z,101884.41
2023-09-02T11:13:00.487Z,101903.75
2023-09-02T11:15:27.981Z,101896.94
2023-09-02T11:17:55.286Z,101829.31
2023-09-02T11:20:25.353Z,101907.34
2023-09-02T11:23:00.677Z,101910.88
2023-09-02T11:25:31.454Z,101908.28
2023-09-02T11:28:00.196Z,101906.13
2023-09-02T11:30:30.300Z,101878.75
2023-09-02T11:32:58.266Z,101904.09
2023-09-02T11:35:28.330Z,101841.00
2023-09-02T11:37:55.187Z,101897.66
2023-09-02T11:40:24.185Z,101900.88
2023-09-02T11:43:01.867Z,101889.16
2023-09-02T11:45:35.079Z,101888.94
2023-09-02T11:48:04.081Z,101890.53
2023-09-02T11:50:30.717Z,101901.69
2023-09-02T11:52:58.501Z,101901.78
2023-09-02T11:55:26.278Z,101906.19
2023-09-02T11:57:53.638Z,101898.59
2023-09-02T12:00:22.115Z,101888.94
2023-09-02T12:02:49.418Z,101894.44
2023-09-02T12:05:16.729Z,101915.13
2023-09-02T12:07:47.646Z,101913.09
2023-09-02T12:10:16.143Z,101905.78
2023-09-02T12:12:44.105Z,101907.59
2023-09-02T12:15:18.544Z,101895.50
2023-09-02T12:17:46.701Z,101887.66
2023-09-02T12:20:14.986Z,101901.91
2023-09-02T12:22:45.274Z,101887.78
2023-09-02T12:25:26.591Z,101906.16
2023-09-02T12:27:54.877Z,101865.44
2023-09-02T12:30:34.229Z,101896.44
2023-09-02T12:33:00.794Z,101903.84
2023-09-02T12:35:27.320Z,101891.28
2023-09-02T12:38:03.871Z,101896.97
2023-09-02T12:40:30.858Z,101903.03
2023-09-02T12:42:58.425Z,101898.88
2023-09-02T12:45:32.965Z,101903.91
2023-09-02T12:48:04.131Z,101881.09
2023-09-02T12:50:31.884Z,101897.66
2023-09-02T12:53:02.645Z,101901.72
2023-09-02T12:55:30.360Z,101901.50
2023-09-02T12:58:02.713Z,101906.50
2023-09-02T13:00:29.336Z,101902.44
2023-09-02T13:02:56.071Z,101905.81
2023-09-02T13:05:22.722Z,101898.50
2023-09-02T13:07:49.228Z,101882.47
2023-09-02T13:10:17.123Z,101836.63
2023-09-02T13:12:44.102Z,101897.66
2023-09-02T13:15:10.718Z,101899.09
2023-09-02T13:17:37.487Z,101897.56
2023-09-02T13:20:04.450Z,101869.34
2023-09-02T13:22:31.258Z,101898.22
2023-09-02T13:24:58.073Z,101891.19
2023-09-02T13:27:29.984Z,101895.34
2023-09-02T13:29:56.683Z,101898.09
2023-09-02T13:32:25.521Z,101869.25
2023-09-02T13:35:16.046Z,101883.88
2023-09-02T13:37:49.776Z,101888.69
2023-09-02T13:40:16.151Z,101883.22
2023-09-02T13:42:46.824Z,101882.50
2023-09-02T13:45:25.312Z,101885.63
2023-09-02T13:47:52.234Z,101868.75
2023-09-02T13:50:20.226Z,101859.78
2023-09-02T13:52:52.174Z,101865.28
2023-09-02T13:55:20.912Z,101859.94
2023-09-02T13:57:47.454Z,101838.91
2023-09-02T14:00:33.838Z,101856.19
2023-09-02T14:03:01.691Z,101852.75
2023-09-02T14:05:28.413Z,101849.63
2023-09-02T14:08:01.959Z,101860.75
2023-09-02T14:10:32.132Z,101855.97
2023-09-02T14:13:09.543Z,101854.91
2023-09-02T14:15:36.631Z,101851.78
2023-09-02T14:18:03.464Z,101857.06
2023-09-02T14:20:29.947Z,101849.03
2023-09-02T14:22:56.437Z,101856.94
2023-09-02T14:25:22.933Z,101850.84
2023-09-02T14:27:49.481Z,101847.63
2023-09-02T14:30:16.118Z,101816.47
2023-09-02T14:32:42.586Z,101824.56
2023-09-02T14:35:09.390Z,101855.25
2023-09-02T14:37:35.890Z,101861.13
2023-09-02T14:40:04.746Z,101854.53
2023-09-02T14:42:34.438Z,101866.84
2023-09-02T14:45:03.563Z,101863.19
2023-09-02T14:47:33.221Z,101871.25
2023-09-02T14:49:59.793Z,101864.50
2023-09-02T14:52:26.942Z,101845.81
2023-09-02T14:54:53.594Z,101871.16
2023-09-02T14:57:23.015Z,101873.31
2023-09-02T14:59:55.108Z,101878.06
2023-09-02T15:02:44.328Z,101872.34
2023-09-02T15:05:19.298Z,101876.22
2023-09-02T15:07:47.260Z,101873.75
2023-09-02T15:10:26.725Z,101876.63
2023-09-02T15:12:53.816Z,101871.31
2023-09-02T15:15:25.785Z,101876.47
2023-09-02T15:17:53.112Z,101880.59
2023-09-02T15:20:29.991Z,101890.06
2023-09-02T15:22:57.424Z,101887.69
2023-09-02T15:25:27.805Z,101892.38
2023-09-02T15:28:06.603Z,101894.19
2023-09-02T15:30:34.855Z,101897.31
2023-09-02T15:33:05.432Z,101882.56
2023-09-02T15:35:34.627Z,101872.19
2023-09-02T15:38:01.810Z,101905.25
2023-09-02T15:40:31.372Z,101830.19
2023-09-02T15:43:02.070Z,101912.50
2023-09-02T15:45:28.586Z,101890.09
2023-09-02T15:47:55.342Z,101939.72
2023-09-02T15:50:22.749Z,101893.66
2023-09-02T15:52:53.871Z,101946.34
2023-09-02T15:55:22.156Z,101947.22
2023-09-02T15:57:48.670Z,101938.81
2023-09-02T16:00:15.353Z,101949.38
2023-09-02T16:02:42.309Z,101945.22
2023-09-02T16:05:08.971Z,101947.59
2023-09-02T16:07:35.574Z,101939.53
2023-09-02T16:10:02.183Z,101956.13
2023-09-02T16:12:28.788Z,101960.34
2023-09-02T16:14:55.593Z,101925.72
2023-09-02T16:17:24.110Z,101953.19
2023-09-02T16:19:50.922Z,101958.47
2023-09-02T16:22:18.916Z,101965.22
2023-09-02T16:24:47.004Z,101961.69
2023-09-02T16:27:14.220Z,101959.19
2023-09-02T16:29:41.332Z,101921.00
2023-09-02T16:32:08.764Z,101951.69
2023-09-02T16:34:36.414Z,101953.59
2023-09-02T16:37:04.109Z,101944.63
2023-09-02T16:39:30.950Z,101964.19
2023-09-02T16:42:01.821Z,101977.22
2023-09-02T16:44:28.332Z,101978.75
2023-09-02T16:46:56.267Z,101974.75
2023-09-02T16:49:26.202Z,101974.38
2023-09-02T16:51:52.630Z,101986.75
2023-09-02T16:54:19.162Z,101994.56
2023-09-02T16:56:45.676Z,101981.06
2023-09-02T16:59:12.886Z,101985.03
2023-09-02T17:01:41.038Z,101992.78
2023-09-02T17:04:07.626Z,101992.97
2023-09-02T17:06:35.755Z,102003.44
2023-09-02T17:09:04.733Z,101979.38
2023-09-02T17:11:31.241Z,101975.50
2023-09-02T17:13:59.198Z,101990.94
2023-09-02T17:16:28.028Z,102000.47
2023-09-02T17:18:55.395Z,101988.06
2023-09-02T17:21:22.121Z,102007.47
2023-09-02T17:23:48.874Z,102008.53
2023-09-02T17:26:15.444Z,102016.47
2023-09-02T17:28:42.333Z,101988.25
2023-09-02T17:31:09.876Z,102022.34
2023-09-02T17:33:38.258Z,102007.50
2023-09-02T17:36:05.295Z,102013.41
2023-09-02T17:38:31.775Z,101988.50
2023-09-02T17:40:58.271Z,102015.94
2023-09-02T17:43:24.849Z,102005.06
2023-09-02T17:45:51.544Z,101977.41
2023-09-02T17:48:18.371Z,101989.50
2023-09-02T17:50:45.669Z,102014.56
2023-09-02T17:53:12.114Z,102005.56
2023-09-02T17:55:38.515Z,102009.44
2023-09-02T17:58:06.421Z,102020.69
2023-09-02T18:00:33.100Z,102025.22
2023-09-02T18:03:01.271Z,102024.47
2023-09-02T18:05:28.177Z,101979.56
2023-09-02T18:07:54.658Z,102023.28
2023-09-02T18:10:22.051Z,102005.75
2023-09-02T18:12:48.544Z,102016.78
2023-09-02T18:15:15.016Z,102016.66
2023-09-02T18:17:41.564Z,102013.31
2023-09-02T18:20:08.548Z,102027.22
2023-09-02T18:22:35.551Z,101948.28
2023-09-02T18:25:03.308Z,101947.28
2023-09-02T18:27:29.836Z,102009.47
2023-09-02T18:29:56.506Z,102030.25
2023-09-02T18:32:23.082Z,102037.69
2023-09-02T18:34:49.676Z,102034.63
2023-09-02T18:37:16.150Z,102049.94
2023-09-02T18:39:42.614Z,102046.84
2023-09-02T18:42:09.064Z,102052.19
2023-09-02T18:44:35.552Z,102047.41
2023-09-02T18:47:02.086Z,101981.41
2023-09-02T18:49:28.630Z,102042.66
2023-09-02T18:51:55.329Z,102054.94
2023-09-02T18:54:21.799Z,102040.94
2023-09-02T18:56:48.349Z,102050.19
2023-09-02T18:59:14.867Z,102051.31
2023-09-02T19:01:41.361Z,102054.91
2023-09-02T19:04:09.233Z,102008.97
2023-09-02T19:06:36.449Z,102044.31
2023-09-02T19:09:03.609Z,102048.31
2023-09-02T19:11:30.949Z,102057.56
2023-09-02T19:13:57.652Z,102056.31
2023-09-02T19:16:25.654Z,102039.53
2023-09-02T19:18:53.043Z,102038.00
2023-09-02T19:21:19.613Z,101999.22
2023-09-02T19:23:46.589Z,102024.97
2023-09-02T19:26:14.952Z,102061.22
2023-09-02T19:28:41.938Z,102068.91
2023-09-02T19:31:08.551Z,102078.28
2023-09-02T19:33:35.144Z,102077.88
2023-09-02T19:36:01.636Z,102065.16
2023-09-02T19:38:28.169Z,102068.88
2023-09-02T19:40:55.362Z,102060.66
2023-09-02T19:43:21.798Z,102070.78
2023-09-02T19:45:48.324Z,102078.16
2023-09-02T19:48:15.003Z,102070.94
2023-09-02T19:50:44.659Z,102085.25
2023-09-02T19:53:12.961Z,102038.75
2023-09-02T19:55:46.857Z,102089.66
2023-09-02T19:58:14.839Z,102097.31
2023-09-02T20:00:45.405Z,102097.50
2023-09-02T20:03:16.620Z,102098.78
2023-09-02T20:05:47.217Z,102087.44
2023-09-02T20:08:13.893Z,102108.94
2023-09-02T20:10:41.348Z,102107.41
2023-09-02T20:13:08.140Z,102098.91
2023-09-02T20:15:35.832Z,102105.72
2023-09-02T20:18:03.597Z,102118.56
2023-09-02T20:20:30.882Z,102125.50
2023-09-02T20:22:57.459Z,102061.97
2023-09-02T20:25:23.969Z,102104.28
2023-09-02T20:27:50.402Z,102123.09
2023-09-02T20:30:16.973Z,102126.63
2023-09-02T20:32:44.230Z,102119.13
2023-09-02T20:35:11.857Z,102070.47
2023-09-02T20:37:39.764Z,102106.38
2023-09-02T20:40:09.252Z,102121.09
2023-09-02T20:42:36.194Z,102093.25
2023-09-02T20:45:04.438Z,102115.00
2023-09-02T20:47:32.002Z,102126.91
2023-09-02T20:49:58.548Z,102130.59
2023-09-02T20:52:25.647Z,102082.38
2023-09-02T20:54:54.336Z,102137.13
2023-09-02T20:57:20.801Z,102117.19
2023-09-02T20:59:47.369Z,102141.25
2023-09-02T21:02:13.918Z,102134.22
2023-09-02T21:04:44.663Z,102139.31
2023-09-02T21:07:11.264Z,102079.19
2023-09-02T21:09:37.715Z,102120.94
2023-09-02T21:12:04.523Z,102135.19
2023-09-02T21:14:30.990Z,102135.91
2023-09-02T21:16:57.457Z,102129.97
2023-09-02T21:19:24.044Z,102113.88
2023-09-02T21:21:51.471Z,102149.78
2023-09-02T21:24:19.729Z,102144.72
2023-09-02T21:26:46.238Z,102002.09
2023-09-02T21:29:12.731Z,102143.31
2023-09-02T21:31:39.209Z,102153.09
2023-09-02T21:34:05.659Z,102157.47
2023-09-02T21:36:32.166Z,102141.63
2023-09-02T21:38:58.662Z,102154.09
2023-09-02T21:41:25.074Z,102099.03
2023-09-02T21:43:52.089Z,102153.38
2023-09-02T21:46:20.554Z,102152.81
2023-09-02T21:48:47.023Z,102107.66
2023-09-02T21:51:13.597Z,102158.19
2023-09-02T21:53:42.179Z,102159.03
2023-09-02T21:56:12.415Z,102157.34
2023-09-02T21:58:39.968Z,102142.22
2023-09-02T22:01:10.698Z,102155.50
2023-09-02T22:03:37.875Z,102128.63
2023-09-02T22:06:10.181Z,102151.97
2023-09-02T22:08:38.136Z,102108.25
2023-09-02T22:11:04.725Z,102154.94
2023-09-02T22:13:31.848Z,102149.72
2023-09-02T22:15:58.729Z,102107.81
2023-09-02T22:18:27.365Z,102142.63
2023-09-02T22:20:57.818Z,102139.63
2023-09-02T22:23:25.953Z,102152.41
2023-09-02T22:25:57.338Z,102149.53
2023-09-02T22:28:23.825Z,102143.19
2023-09-02T22:30:52.216Z,102166.72
2023-09-02T22:33:20.970Z,102135.69
2023-09-02T22:35:52.486Z,102168.38
2023-09-02T22:38:19.944Z,102176.63
2023-09-02T22:40:47.204Z,102154.41
2023-09-02T22:43:13.713Z,102190.94
2023-09-02T22:45:40.229Z,102193.91
2023-09-02T22:48:07.140Z,102189.38
2023-09-02T22:50:34.863Z,102188.53
2023-09-02T22:53:07.351Z,102151.56
2023-09-02T22:55:34.948Z,102186.97
2023-09-02T22:58:02.492Z,102187.81
2023-09-02T23:00:29.850Z,102174.66
2023-09-02T23:02:57.475Z,102181.72
2023-09-02T23:05:27.856Z,102173.22
2023-09-02T23:07:55.492Z,102168.44
2023-09-02T23:10:23.279Z,102188.09
2023-09-02T23:12:50.093Z,102190.22
2023-09-02T23:15:17.056Z,102186.41
2023-09-02T23:17:43.593Z,102125.91
2023-09-02T23:20:10.995Z,102191.66
2023-09-02T23:22:37.828Z,102192.63
2023-09-02T23:25:05.794Z,102171.25
2023-09-02T23:27:32.394Z,102208.66
2023-09-02T23:29:58.859Z,102203.13
2023-09-02T23:32:25.897Z,102207.53
2023-09-02T23:34:54.426Z,102200.16
2023-09-02T23:37:21.097Z,102183.16
2023-09-02T23:39:48.026Z,102198.31
2023-09-02T23:42:14.619Z,102159.78
2023-09-02T23:44:41.052Z,102199.69
2023-09-02T23:47:07.536Z,102186.00
2023-09-02T23:49:34.009Z,102202.53
2023-09-02T23:52:00.673Z,102207.78
2023-09-02T23:54:28.672Z,102216.72
2023-09-02T23:56:55.178Z,102229.31
2023-09-02T23:59:21.676Z,102240.09
